createdAt,value
2019-02-17T00:00:18.416Z,55.96
2019-02-17T00:01:19.376Z,56.62
2019-02-17T00:02:20.066Z,56.43
2019-02-17T00:03:21.028Z,56.62
2019-02-17T00:04:21.437Z,55.76
2019-02-17T00:05:21.637Z,56.15
2019-02-17T00:06:23.047Z,55.86
2019-02-17T00:07:23.729Z,56.15
2019-02-17T00:08:24.692Z,56.15
2019-02-17T00:09:26.003Z,55.29
2019-02-17T00:10:26.175Z,55.29
2019-02-17T00:11:27.422Z,55.48
2019-02-17T00:12:27.676Z,55.19
2019-02-17T00:13:28.365Z,55.1
2019-02-17T00:14:29.776Z,55.19
2019-02-17T00:15:30.736Z,55.38
2019-02-17T00:16:30.700Z,55.1
2019-02-17T00:17:31.410Z,55.1
2019-02-17T00:18:32.933Z,55.1
2019-02-17T00:19:33.069Z,55.19
2019-02-17T00:20:34.209Z,55.51
2019-02-17T00:21:35.171Z,55.1
2019-02-17T00:22:35.576Z,55
2019-02-17T00:23:35.983Z,55.19
2019-02-17T00:24:36.388Z,55.38
2019-02-17T00:25:37.352Z,55.57
2019-02-17T00:26:38.045Z,55.67
2019-02-17T00:27:38.287Z,55.76
2019-02-17T00:28:38.812Z,55.67
2019-02-17T00:29:39.385Z,55.86
2019-02-17T00:30:39.953Z,55.67
2019-02-17T00:31:41.159Z,56.15
2019-02-17T00:32:41.568Z,56.34
2019-02-17T00:33:42.975Z,56.71
2019-02-17T00:34:43.950Z,56.15
2019-02-17T00:35:44.358Z,55.96
2019-02-17T00:36:44.790Z,56.15
2019-02-17T00:37:45.760Z,56.81
2019-02-17T00:38:46.451Z,56.43
2019-02-17T00:39:46.858Z,56.9
2019-02-17T00:40:47.971Z,57.19
2019-02-17T00:41:48.656Z,57.09
2019-02-17T00:42:50.066Z,57.28
2019-02-17T00:43:51.332Z,57.28
2019-02-17T00:44:52.462Z,57.66
2019-02-17T00:45:53.711Z,56.9
2019-02-17T00:46:53.841Z,57.28
2019-02-17T00:47:54.080Z,56.81
2019-02-17T00:48:55.763Z,56.99
2019-02-17T00:49:56.726Z,56.62
2019-02-17T00:50:57.573Z,56.9
2019-02-17T00:51:58.535Z,57.19
2019-02-17T00:52:58.663Z,56.9
2019-02-17T00:53:59.630Z,57.09
2019-02-17T00:55:01.151Z,56.62
2019-02-17T00:56:01.871Z,56.43
2019-02-17T00:57:02.285Z,56.99
2019-02-17T00:58:03.257Z,56.34
2019-02-17T00:59:11.349Z,56.81
2019-02-17T00:59:15.985Z,56.9
2019-02-17T01:00:16.530Z,56.34
2019-02-17T01:01:17.221Z,55.96
2019-02-17T01:02:17.745Z,56.71
2019-02-17T01:03:19.155Z,56.52
2019-02-17T01:04:19.837Z,56.62
2019-02-17T01:05:20.802Z,56.24
2019-02-17T01:06:21.051Z,56.71
2019-02-17T01:07:22.181Z,56.81
2019-02-17T01:08:22.865Z,56.9
2019-02-17T01:09:24.002Z,56.99
2019-02-17T01:10:24.843Z,56.81
2019-02-17T01:11:26.110Z,57.76
2019-02-17T01:12:26.820Z,57.76
2019-02-17T01:13:27.784Z,57.66
2019-02-17T01:14:28.189Z,57.85
2019-02-17T01:15:28.873Z,57.66
2019-02-17T01:16:29.280Z,57.95
2019-02-17T01:17:30.524Z,57.85
2019-02-17T01:18:31.209Z,57.66
2019-02-17T01:19:32.170Z,57.95
2019-02-17T01:20:33.304Z,57.95
2019-02-17T01:21:33.770Z,57.95
2019-02-17T01:22:34.784Z,57.66
2019-02-17T01:23:34.748Z,57.85
2019-02-17T01:24:35.435Z,57.64
2019-02-17T01:25:36.462Z,57.54
2019-02-17T01:26:36.420Z,57.92
2019-02-17T01:27:37.830Z,57.64
2019-02-17T01:28:39.146Z,57.54
2019-02-17T01:29:39.829Z,57.73
2019-02-17T01:30:40.106Z,57.64
2019-02-17T01:31:41.068Z,57.82
2019-02-17T01:32:42.033Z,57.73
2019-02-17T01:33:42.553Z,58.2
2019-02-17T01:34:43.515Z,57.73
2019-02-17T01:35:43.938Z,57.44
2019-02-17T01:36:44.528Z,57.73
2019-02-17T01:37:45.216Z,57.73
2019-02-17T01:38:46.346Z,57.35
2019-02-17T01:39:46.750Z,57.25
2019-02-17T01:40:47.278Z,57.92
2019-02-17T01:41:48.682Z,57.35
2019-02-17T01:42:49.646Z,57.25
2019-02-17T01:43:50.052Z,57.35
2019-02-17T01:44:51.018Z,57.25
2019-02-17T01:45:51.702Z,57.06
2019-02-17T01:46:52.387Z,57.16
2019-02-17T01:47:52.352Z,57.35
2019-02-17T01:48:52.756Z,56.78
2019-02-17T01:49:53.446Z,56.97
2019-02-17T01:50:54.530Z,57.73
2019-02-17T01:51:54.941Z,57.25
2019-02-17T01:52:55.634Z,57.44
2019-02-17T01:53:56.596Z,56.78
2019-02-17T01:54:56.724Z,57.25
2019-02-17T01:55:58.131Z,56.87
2019-02-17T01:56:59.265Z,56.59
2019-02-17T01:57:59.457Z,56.3
2019-02-17T01:59:00.698Z,57.25
2019-02-17T02:00:01.951Z,56.59
2019-02-17T02:01:01.939Z,56.68
2019-02-17T02:02:02.458Z,56.12
2019-02-17T02:03:03.148Z,55.83
2019-02-17T02:04:04.278Z,55.26
2019-02-17T02:05:05.410Z,54.79
2019-02-17T02:06:06.667Z,54.44
2019-02-17T02:07:07.627Z,54.34
2019-02-17T02:08:08.033Z,54.44
2019-02-17T02:09:08.993Z,55.19
2019-02-17T02:10:09.983Z,55.1
2019-02-17T02:11:10.195Z,55.38
2019-02-17T02:12:10.611Z,55.38
2019-02-17T02:13:11.575Z,55.38
2019-02-17T02:14:11.986Z,55.19
2019-02-17T02:15:12.959Z,55.67
2019-02-17T02:16:13.661Z,55.29
2019-02-17T02:17:14.117Z,55.29
2019-02-17T02:18:14.526Z,55.57
2019-02-17T02:19:15.934Z,55.67
2019-02-17T02:20:16.615Z,55.48
2019-02-17T02:21:17.182Z,55.76
2019-02-17T02:22:18.153Z,55.96
2019-02-17T02:23:19.847Z,55.86
2019-02-17T02:24:20.551Z,55.96
2019-02-17T02:25:21.244Z,56.43
2019-02-17T02:26:22.370Z,56.12
2019-02-17T02:27:23.505Z,56.81
2019-02-17T02:28:24.200Z,56.34
2019-02-17T02:29:24.934Z,56.02
2019-02-17T02:30:26.627Z,55.55
2019-02-17T02:31:26.619Z,55.26
2019-02-17T02:32:27.689Z,55.57
2019-02-17T02:33:28.661Z,55.36
2019-02-17T02:34:29.188Z,55.93
2019-02-17T02:35:30.149Z,55.74
2019-02-17T02:36:30.453Z,55.45
2019-02-17T02:37:30.699Z,55.64
2019-02-17T02:38:30.679Z,56.02
2019-02-17T02:39:31.647Z,55.64
2019-02-17T02:40:31.774Z,55.55
2019-02-17T02:41:35.900Z,55.55
2019-02-17T02:42:37.176Z,55.64
2019-02-17T02:43:37.881Z,55.55
2019-02-17T02:44:38.289Z,55.36
2019-02-17T02:45:39.264Z,55.55
2019-02-17T02:46:40.508Z,56.02
2019-02-17T02:47:40.919Z,56.21
2019-02-17T02:48:42.155Z,55.64
2019-02-17T02:49:42.692Z,56.49
2019-02-17T02:50:43.100Z,56.78
2019-02-17T02:51:43.857Z,56.87
2019-02-17T02:52:45.107Z,56.49
2019-02-17T02:53:45.405Z,56.3
2019-02-17T02:54:46.378Z,56.4
2019-02-17T02:55:46.925Z,56.4
2019-02-17T02:56:48.165Z,56.21
2019-02-17T02:57:48.950Z,56.12
2019-02-17T02:58:49.643Z,56.4
2019-02-17T02:59:53.644Z,56.3
2019-02-17T03:00:54.366Z,56.12
2019-02-17T03:01:55.063Z,56.21
2019-02-17T03:02:56.036Z,56.21
2019-02-17T03:03:56.295Z,55.83
2019-02-17T03:04:56.988Z,56.4
2019-02-17T03:05:57.394Z,56.4
2019-02-17T03:06:57.800Z,55.93
2019-02-17T03:07:58.488Z,56.4
2019-02-17T03:08:58.766Z,55.64
2019-02-17T03:09:59.737Z,56.4
2019-02-17T03:11:00.426Z,57.25
2019-02-17T03:12:01.826Z,57.16
2019-02-17T03:13:02.069Z,57.25
2019-02-17T03:14:02.490Z,57.73
2019-02-17T03:15:03.925Z,57.64
2019-02-17T03:16:05.051Z,57.82
2019-02-17T03:17:05.291Z,57.16
2019-02-17T03:18:06.290Z,57.73
2019-02-17T03:19:06.420Z,57.64
2019-02-17T03:20:06.839Z,57.64
2019-02-17T03:21:08.080Z,57.82
2019-02-17T03:22:08.473Z,57.06
2019-02-17T03:23:09.561Z,57.06
2019-02-17T03:24:09.836Z,57.16
2019-02-17T03:25:10.800Z,57.25
2019-02-17T03:26:11.495Z,57.06
2019-02-17T03:27:12.431Z,57.25
2019-02-17T03:28:13.683Z,57.06
2019-02-17T03:29:14.492Z,56.87
2019-02-17T03:30:15.491Z,56.78
2019-02-17T03:31:16.620Z,56.97
2019-02-17T03:32:17.466Z,56.78
2019-02-17T03:33:18.121Z,56.78
2019-02-17T03:34:19.215Z,56.68
2019-02-17T03:35:19.680Z,56.87
2019-02-17T03:36:21.249Z,56.97
2019-02-17T03:37:20.962Z,57.25
2019-02-17T03:38:21.924Z,57.44
2019-02-17T03:39:22.664Z,57.25
2019-02-17T03:40:23.634Z,57.25
2019-02-17T03:41:24.317Z,57.25
2019-02-17T03:42:25.460Z,57.35
2019-02-17T03:43:25.871Z,57.25
2019-02-17T03:44:27.145Z,57.06
2019-02-17T03:45:27.841Z,57.82
2019-02-17T03:46:28.529Z,57.73
2019-02-17T03:47:28.671Z,57.16
2019-02-17T03:48:29.362Z,57.35
2019-02-17T03:49:30.597Z,57.82
2019-02-17T03:50:31.366Z,57.73
2019-02-17T03:51:31.772Z,57.35
2019-02-17T03:52:32.914Z,57.35
2019-02-17T03:53:34.158Z,57.54
2019-02-17T03:54:34.288Z,57.35
2019-02-17T03:55:35.259Z,57.16
2019-02-17T03:56:36.226Z,56.87
2019-02-17T03:57:36.766Z,57.35
2019-02-17T03:58:37.748Z,57.16
2019-02-17T03:59:38.763Z,56.97
2019-02-17T04:00:39.441Z,56.87
2019-02-17T04:01:39.990Z,56.78
2019-02-17T04:02:40.362Z,56.3
2019-02-17T04:03:41.323Z,56.4
2019-02-17T04:04:41.794Z,55.93
2019-02-17T04:05:42.780Z,56.49
2019-02-17T04:06:43.580Z,55.74
2019-02-17T04:07:44.821Z,55.93
2019-02-17T04:08:44.787Z,55.64
2019-02-17T04:09:46.028Z,56.3
2019-02-17T04:10:47.270Z,55.83
2019-02-17T04:11:47.686Z,55.55
2019-02-17T04:12:49.093Z,55.64
2019-02-17T04:13:50.054Z,55.45
2019-02-17T04:14:50.302Z,55.55
2019-02-17T04:15:51.292Z,55.55
2019-02-17T04:16:52.086Z,55.17
2019-02-17T04:17:53.394Z,54.88
2019-02-17T04:18:54.368Z,55.07
2019-02-17T04:19:54.611Z,54.98
2019-02-17T04:20:55.575Z,54.98
2019-02-17T04:21:55.722Z,55.07
2019-02-17T04:22:56.694Z,54.98
2019-02-17T04:23:57.105Z,55.17
2019-02-17T04:24:57.528Z,55.17
2019-02-17T04:25:58.048Z,54.79
2019-02-17T04:26:59.030Z,54.69
2019-02-17T04:27:59.565Z,54.79
2019-02-17T04:28:59.974Z,54.6
2019-02-17T04:30:00.727Z,54.22
2019-02-17T04:31:01.423Z,54.32
2019-02-17T04:32:01.858Z,54.32
2019-02-17T04:33:02.487Z,54.32
2019-02-17T04:34:02.910Z,54.32
2019-02-17T04:35:03.345Z,54.32
2019-02-17T04:36:03.759Z,55.17
2019-02-17T04:37:04.775Z,54.69
2019-02-17T04:38:05.195Z,54.98
2019-02-17T04:39:06.439Z,55.17
2019-02-17T04:40:07.135Z,55.07
2019-02-17T04:41:08.382Z,55.55
2019-02-17T04:42:08.132Z,56.02
2019-02-17T04:43:09.338Z,55.17
2019-02-17T04:44:10.585Z,55.17
2019-02-17T04:45:11.850Z,55.64
2019-02-17T04:46:12.863Z,55.45
2019-02-17T04:47:13.269Z,55.64
2019-02-17T04:48:14.227Z,55.55
2019-02-17T04:49:14.663Z,55.83
2019-02-17T04:50:15.350Z,55.74
2019-02-17T04:51:16.615Z,55.83
2019-02-17T04:52:17.148Z,55.74
2019-02-17T04:53:17.553Z,55.64
2019-02-17T04:54:17.840Z,55.64
2019-02-17T04:55:18.971Z,55.93
2019-02-17T04:56:19.746Z,56.21
2019-02-17T04:57:19.940Z,56.4
2019-02-17T04:58:21.180Z,55.64
2019-02-17T04:59:21.587Z,54.98
2019-02-17T05:00:23.271Z,54.98
2019-02-17T05:01:24.238Z,54.13
2019-02-17T05:02:25.481Z,54.22
2019-02-17T05:03:26.175Z,54.03
2019-02-17T05:04:26.170Z,53.84
2019-02-17T05:05:27.146Z,53.94
2019-02-17T05:06:28.296Z,54.03
2019-02-17T05:07:29.253Z,54.13
2019-02-17T05:08:29.951Z,54.03
2019-02-17T05:09:30.391Z,53.84
2019-02-17T05:10:30.638Z,54.13
2019-02-17T05:11:30.886Z,53.94
2019-02-17T05:12:31.621Z,54.32
2019-02-17T05:13:32.317Z,54.32
2019-02-17T05:14:32.729Z,54.13
2019-02-17T05:15:33.139Z,54.69
2019-02-17T05:16:34.113Z,54.22
2019-02-17T05:17:34.647Z,54.41
2019-02-17T05:18:35.334Z,55.17
2019-02-17T05:19:36.022Z,55.07
2019-02-17T05:20:36.430Z,55.07
2019-02-17T05:21:37.404Z,54.98
2019-02-17T05:22:40.961Z,54.79
2019-02-17T05:23:41.365Z,54.79
2019-02-17T05:24:42.048Z,54.69
2019-02-17T05:25:43.031Z,54.79
2019-02-17T05:26:43.865Z,54.88
2019-02-17T05:27:44.287Z,54.98
2019-02-17T05:28:44.551Z,55.07
2019-02-17T05:29:45.251Z,54.98
2019-02-17T05:30:57.163Z,54.98
2019-02-17T05:31:58.144Z,54.79
2019-02-17T05:32:59.634Z,55.17
2019-02-17T05:34:00.912Z,54.69
2019-02-17T05:35:01.094Z,54.6
2019-02-17T05:36:01.614Z,54.13
2019-02-17T05:37:02.594Z,54.13
2019-02-17T05:38:03.281Z,54.6
2019-02-17T05:39:04.082Z,54.22
2019-02-17T05:40:04.511Z,54.41
2019-02-17T05:41:04.672Z,54.79
2019-02-17T05:42:05.509Z,54.79
2019-02-17T05:43:05.981Z,54.88
2019-02-17T05:44:06.410Z,54.88
2019-02-17T05:45:07.427Z,55.07
2019-02-17T05:46:07.392Z,54.98
2019-02-17T05:47:07.809Z,55.26
2019-02-17T05:48:08.498Z,55.55
2019-02-17T05:49:09.175Z,55.93
2019-02-17T05:50:09.157Z,55.55
2019-02-17T05:51:10.303Z,55.17
2019-02-17T05:52:10.992Z,55.17
2019-02-17T05:53:11.955Z,55.24
2019-02-17T05:54:11.928Z,55.14
2019-02-17T05:55:12.622Z,55.24
2019-02-17T05:56:13.047Z,55.33
2019-02-17T05:57:14.013Z,55.24
2019-02-17T05:58:14.537Z,55.52
2019-02-17T05:59:15.227Z,55.62
2019-02-17T06:00:15.724Z,55.43
2019-02-17T06:01:16.415Z,54.95
2019-02-17T06:02:17.541Z,55.05
2019-02-17T06:03:18.509Z,55.07
2019-02-17T06:04:19.197Z,54.88
2019-02-17T06:05:20.229Z,54.79
2019-02-17T06:06:21.195Z,54.5
2019-02-17T06:07:22.453Z,54.69
2019-02-17T06:08:22.137Z,54.22
2019-02-17T06:09:22.862Z,54.13
2019-02-17T06:10:24.003Z,54.03
2019-02-17T06:11:24.699Z,54.03
2019-02-17T06:12:25.676Z,54.13
2019-02-17T06:13:26.363Z,54.13
2019-02-17T06:14:27.607Z,53.94
2019-02-17T06:15:27.603Z,54.13
2019-02-17T06:16:28.299Z,54.03
2019-02-17T06:17:28.707Z,53.75
2019-02-17T06:18:29.418Z,54.13
2019-02-17T06:19:30.719Z,54.03
2019-02-17T06:20:31.412Z,54.13
2019-02-17T06:21:32.097Z,53.94
2019-02-17T06:22:32.948Z,54.03
2019-02-17T06:23:33.633Z,53.75
2019-02-17T06:24:34.598Z,53.27
2019-02-17T06:25:35.308Z,53.56
2019-02-17T06:26:36.551Z,53.46
2019-02-17T06:27:36.993Z,53.27
2019-02-17T06:28:37.686Z,53.27
2019-02-17T06:29:38.095Z,53.56
2019-02-17T06:30:39.503Z,53.18
2019-02-17T06:31:40.194Z,54.03
2019-02-17T06:32:40.736Z,54.32
2019-02-17T06:33:40.986Z,54.13
2019-02-17T06:34:41.677Z,54.22
2019-02-17T06:35:43.370Z,54.32
2019-02-17T06:36:43.343Z,53.75
2019-02-17T06:37:44.896Z,53.94
2019-02-17T06:38:44.883Z,53.84
2019-02-17T06:39:45.570Z,53.75
2019-02-17T06:40:46.260Z,53.65
2019-02-17T06:41:46.961Z,54.03
2019-02-17T06:42:47.126Z,54.03
2019-02-17T06:43:48.370Z,53.27
2019-02-17T06:44:49.273Z,52.51
2019-02-17T06:45:49.688Z,52.06
2019-02-17T06:46:49.939Z,50.93
2019-02-17T06:47:50.352Z,50.93
2019-02-17T06:48:51.039Z,50.2
2019-02-17T06:49:51.731Z,50.01
2019-02-17T06:50:52.439Z,48.51
2019-02-17T06:51:52.860Z,47.28
2019-02-17T06:52:53.234Z,47.37
2019-02-17T06:53:53.930Z,47.66
2019-02-17T06:54:54.344Z,47.28
2019-02-17T06:55:55.039Z,47.18
2019-02-17T06:56:56.842Z,46.51
2019-02-17T06:57:56.903Z,46.61
2019-02-17T06:58:57.322Z,46.42
2019-02-17T06:59:57.759Z,46.35
2019-02-17T07:00:59.172Z,45.97
2019-02-17T07:02:00.147Z,45.5
2019-02-17T07:03:00.799Z,45.02
2019-02-17T07:04:01.619Z,45.5
2019-02-17T07:05:02.915Z,45.5
2019-02-17T07:06:03.424Z,45.12
2019-02-17T07:07:04.758Z,44.73
2019-02-17T07:08:04.785Z,45.21
2019-02-17T07:09:05.643Z,44.83
2019-02-17T07:10:06.118Z,45.19
2019-02-17T07:11:06.254Z,45.09
2019-02-17T07:12:06.989Z,44.64
2019-02-17T07:13:07.782Z,45.09
2019-02-17T07:14:08.479Z,45.12
2019-02-17T07:15:09.505Z,45.5
2019-02-17T07:16:09.918Z,45.78
2019-02-17T07:17:11.053Z,45.31
2019-02-17T07:18:12.023Z,44.93
2019-02-17T07:19:13.002Z,45.5
2019-02-17T07:20:13.697Z,45.12
2019-02-17T07:21:14.113Z,45.21
2019-02-17T07:22:14.915Z,45.59
2019-02-17T07:23:16.713Z,46.14
2019-02-17T07:24:16.850Z,46.04
2019-02-17T07:25:17.269Z,46.14
2019-02-17T07:26:18.691Z,46.14
2019-02-17T07:27:19.175Z,45.97
2019-02-17T07:28:19.872Z,45.21
2019-02-17T07:29:20.922Z,44.54
2019-02-17T07:30:20.638Z,43.62
2019-02-17T07:31:23.853Z,43.14
2019-02-17T07:31:35.900Z,42.86
2019-02-17T07:32:36.279Z,42.97
2019-02-17T07:33:37.434Z,42.5
2019-02-17T07:34:38.876Z,41.85
2019-02-17T07:35:39.588Z,40.9
2019-02-17T07:36:41.293Z,40.43
2019-02-17T07:37:41.851Z,39.4
2019-02-17T07:38:42.456Z,38.56
2019-02-17T07:39:43.152Z,37.82
2019-02-17T07:40:43.860Z,36.41
2019-02-17T07:41:44.281Z,35.38
2019-02-17T07:42:45.537Z,34.34
2019-02-17T07:43:45.958Z,33.78
2019-02-17T07:44:46.103Z,33.41
2019-02-17T07:45:47.243Z,33.39
2019-02-17T07:46:47.944Z,33.49
2019-02-17T07:47:48.646Z,33.78
2019-02-17T07:48:49.628Z,34.16
2019-02-17T07:49:50.883Z,34.81
2019-02-17T07:50:51.911Z,34.81
2019-02-17T07:51:52.330Z,34.14
2019-02-17T07:52:53.030Z,33.95
2019-02-17T07:53:53.451Z,33.66
2019-02-17T07:54:54.595Z,33.01
2019-02-17T07:55:55.846Z,33.01
2019-02-17T07:56:56.357Z,31.98
2019-02-17T07:57:57.055Z,31.6
2019-02-17T07:58:58.127Z,30.85
2019-02-17T07:59:58.830Z,30.37
2019-02-17T08:00:59.705Z,30.19
2019-02-17T08:01:59.740Z,29.62
2019-02-17T08:03:00.015Z,29.73
2019-02-17T08:04:01.717Z,29.08
2019-02-17T08:05:02.164Z,29.54
2019-02-17T08:06:03.356Z,29.16
2019-02-17T08:07:03.811Z,28.87
2019-02-17T08:08:05.236Z,28.77
2019-02-17T08:09:06.251Z,28.97
2019-02-17T08:10:06.952Z,29.52
2019-02-17T08:11:07.662Z,29.91
2019-02-17T08:12:08.363Z,29.72
2019-02-17T08:13:08.769Z,29.52
2019-02-17T08:14:10.505Z,29.72
2019-02-17T08:15:10.965Z,29.06
2019-02-17T08:16:11.691Z,28.87
2019-02-17T08:17:12.390Z,28.12
2019-02-17T08:18:12.813Z,26.98
2019-02-17T08:19:13.962Z,26.03
2019-02-17T08:20:15.221Z,25.85
2019-02-17T08:21:15.648Z,25.29
2019-02-17T08:22:16.648Z,24.44
2019-02-17T08:23:18.333Z,23.78
2019-02-17T08:24:19.354Z,23.58
2019-02-17T08:25:23.180Z,23.21
2019-02-17T08:26:23.438Z,23.21
2019-02-17T08:27:23.863Z,23.21
2019-02-17T08:28:25.008Z,23.66
2019-02-17T08:29:26.495Z,24.52
2019-02-17T08:30:27.642Z,25.1
2019-02-17T08:31:28.070Z,24.23
2019-02-17T08:32:29.253Z,23.68
2019-02-17T08:33:30.364Z,23.21
2019-02-17T08:34:31.070Z,23.12
2019-02-17T08:35:31.773Z,23.31
2019-02-17T08:36:32.196Z,23.5
2019-02-17T08:37:32.621Z,23.5
2019-02-17T08:38:33.603Z,23.49
2019-02-17T08:39:34.031Z,23.78
2019-02-17T08:40:34.732Z,24.62
2019-02-17T08:41:34.714Z,24.99
2019-02-17T08:42:35.425Z,26.03
2019-02-17T08:43:35.706Z,26.11
2019-02-17T08:44:35.922Z,27.07
2019-02-17T08:45:37.069Z,26.97
2019-02-17T08:46:38.113Z,26.4
2019-02-17T08:47:38.550Z,26.22
2019-02-17T08:48:39.249Z,25.93
2019-02-17T08:49:39.676Z,25.65
2019-02-17T08:50:40.935Z,26.22
2019-02-17T08:51:41.191Z,26.12
2019-02-17T08:52:41.662Z,26.3
2019-02-17T08:53:42.496Z,27.07
2019-02-17T08:54:43.477Z,26.78
2019-02-17T08:55:44.900Z,26.6
2019-02-17T08:56:46.330Z,26.7
2019-02-17T08:57:47.269Z,26.11
2019-02-17T08:58:47.527Z,26.3
2019-02-17T08:59:48.072Z,27.16
2019-02-17T09:00:48.720Z,26.59
2019-02-17T09:01:49.139Z,27.36
2019-02-17T09:02:49.563Z,26.21
2019-02-17T09:03:50.561Z,26.4
2019-02-17T09:04:51.264Z,26.68
2019-02-17T09:05:51.685Z,26.12
2019-02-17T09:06:52.123Z,25.85
2019-02-17T09:07:53.545Z,24.52
2019-02-17T09:08:53.971Z,24.62
2019-02-17T09:09:54.674Z,24.62
2019-02-17T09:10:55.882Z,24.7
2019-02-17T09:11:56.584Z,25.45
2019-02-17T09:12:56.893Z,26.3
2019-02-17T09:13:57.862Z,27.15
2019-02-17T09:14:58.287Z,28.2
2019-02-17T09:15:58.983Z,28
2019-02-17T09:16:59.471Z,28.76
2019-02-17T09:18:00.248Z,28.46
2019-02-17T09:19:00.686Z,28.46
2019-02-17T09:20:01.386Z,28.92
2019-02-17T09:21:02.148Z,29.59
2019-02-17T09:22:02.858Z,29.61
2019-02-17T09:23:03.077Z,28.94
2019-02-17T09:24:03.226Z,28.65
2019-02-17T09:25:04.482Z,27.8
2019-02-17T09:26:05.187Z,27.34
2019-02-17T09:27:05.609Z,26.68
2019-02-17T09:28:05.818Z,25.46
2019-02-17T09:29:06.245Z,24.62
2019-02-17T09:30:06.539Z,23.96
2019-02-17T09:31:07.520Z,22.92
2019-02-17T09:32:19.145Z,22.54
2019-02-17T09:33:19.427Z,22.54
2019-02-17T09:34:20.434Z,22.16
2019-02-17T09:35:20.417Z,22.27
2019-02-17T09:36:21.582Z,21.98
2019-02-17T09:37:22.376Z,21.8
2019-02-17T09:38:23.638Z,21.33
2019-02-17T09:39:24.355Z,21.05
2019-02-17T09:40:25.082Z,20.48
2019-02-17T09:41:26.352Z,19.82
2019-02-17T09:42:27.060Z,19.73
2019-02-17T09:43:27.625Z,20.4
2019-02-17T09:44:27.777Z,19.53
2019-02-17T09:45:29.217Z,20
2019-02-17T09:46:30.644Z,19.62
2019-02-17T09:47:30.909Z,19.43
2019-02-17T09:48:31.618Z,19.52
2019-02-17T09:49:32.889Z,20.2
2019-02-17T09:50:33.321Z,20
2019-02-17T09:51:34.025Z,19.43
2019-02-17T09:52:35.176Z,20.29
2019-02-17T09:53:35.745Z,19.8
2019-02-17T09:54:36.450Z,20.85
2019-02-17T09:55:37.153Z,21.8
2019-02-17T09:56:38.140Z,21.61
2019-02-17T09:57:38.285Z,21.41
2019-02-17T09:58:39.547Z,22.55
2019-02-17T09:59:40.534Z,21.51
2019-02-17T10:00:41.239Z,21.22
2019-02-17T10:01:43.416Z,20.37
2019-02-17T10:02:44.914Z,20.47
2019-02-17T10:03:45.763Z,21.44
2019-02-17T10:04:47.714Z,21.42
2019-02-17T10:05:47.997Z,21.14
2019-02-17T10:06:48.987Z,20.65
2019-02-17T10:07:52.282Z,19.5
2019-02-17T10:08:52.991Z,19.7
2019-02-17T10:09:53.695Z,19.61
2019-02-17T10:10:53.846Z,19.13
2019-02-17T10:11:54.896Z,19.32
2019-02-17T10:12:55.612Z,20.09
2019-02-17T10:13:57.005Z,20.18
2019-02-17T10:14:57.711Z,20.65
2019-02-17T10:15:58.139Z,21.24
2019-02-17T10:16:58.570Z,21.62
2019-02-17T10:17:59.995Z,19.9
2019-02-17T10:19:00.704Z,20.1
2019-02-17T10:20:01.416Z,19.04
2019-02-17T10:21:02.123Z,18.48
2019-02-17T10:22:02.551Z,18.48
2019-02-17T10:23:03.018Z,18.38
2019-02-17T10:24:03.712Z,18.68
2019-02-17T10:25:04.421Z,18.1
2019-02-17T10:26:05.853Z,17.91
2019-02-17T10:27:06.668Z,18.19
2019-02-17T10:28:07.164Z,19.35
2019-02-17T10:29:07.660Z,18.96
2019-02-17T10:30:08.087Z,17.91
2019-02-17T10:31:09.350Z,16.95
2019-02-17T10:32:09.336Z,17.71
2019-02-17T10:33:10.767Z,18.68
2019-02-17T10:34:10.983Z,18.66
2019-02-17T10:35:12.424Z,18
2019-02-17T10:36:13.775Z,16.95
2019-02-17T10:37:14.483Z,16.09
2019-02-17T10:38:16.210Z,17.35
2019-02-17T10:39:16.369Z,16.1
2019-02-17T10:40:17.357Z,16.2
2019-02-17T10:41:18.643Z,15.63
2019-02-17T10:42:19.635Z,15.34
2019-02-17T10:43:20.346Z,15.53
2019-02-17T10:44:20.272Z,15.16
2019-02-17T10:45:20.705Z,14.97
2019-02-17T10:46:21.873Z,14.97
2019-02-17T10:47:22.305Z,14.78
2019-02-17T10:48:23.571Z,14.48
2019-02-17T10:49:24.000Z,14.77
2019-02-17T10:50:24.443Z,15.53
2019-02-17T10:51:27.491Z,15.73
2019-02-17T10:52:28.536Z,15.63
2019-02-17T10:53:29.522Z,15.63
2019-02-17T10:54:30.122Z,16.11
2019-02-17T10:55:31.120Z,15.43
2019-02-17T10:56:32.383Z,15.25
2019-02-17T10:57:33.372Z,15.81
2019-02-17T10:58:34.381Z,15.63
2019-02-17T10:59:34.647Z,15.8
2019-02-17T11:00:35.079Z,16.37
2019-02-17T11:01:36.127Z,16.67
2019-02-17T11:02:48.864Z,15.7
2019-02-17T11:03:49.438Z,16.37
2019-02-17T11:04:49.880Z,17.05
2019-02-17T11:05:50.310Z,16.75
2019-02-17T11:06:51.466Z,16.85
2019-02-17T11:07:51.906Z,16.65
2019-02-17T11:08:52.908Z,16.65
2019-02-17T11:09:53.056Z,16.66
2019-02-17T11:10:53.765Z,16.85
2019-02-17T11:11:55.027Z,16.47
2019-02-17T11:12:55.478Z,16.28
2019-02-17T11:13:55.898Z,15.9
2019-02-17T11:14:56.327Z,15.8
2019-02-17T11:15:57.497Z,15.81
2019-02-17T11:16:58.203Z,15.61
2019-02-17T11:17:58.914Z,16.29
2019-02-17T11:19:00.343Z,15.62
2019-02-17T11:20:00.774Z,15.52
2019-02-17T11:21:01.487Z,15.61
2019-02-17T11:22:01.918Z,15.7
2019-02-17T11:23:02.482Z,15.52
2019-02-17T11:24:03.614Z,15.9
2019-02-17T11:25:03.637Z,15.52
2019-02-17T11:26:04.787Z,15.99
2019-02-17T11:27:05.939Z,16.36
2019-02-17T11:28:07.206Z,16.27
2019-02-17T11:29:07.914Z,16.18
2019-02-17T11:30:09.237Z,16.08
2019-02-17T11:31:10.401Z,16.75
2019-02-17T11:32:10.836Z,17.24
2019-02-17T11:33:11.545Z,18.19
2019-02-17T11:34:12.670Z,17.03
2019-02-17T11:35:13.123Z,17.33
2019-02-17T11:36:14.104Z,18.48
2019-02-17T11:37:14.828Z,17.8
2019-02-17T11:38:15.976Z,18.86
2019-02-17T11:39:17.402Z,17.61
2019-02-17T11:40:17.909Z,16.93
2019-02-17T11:41:18.066Z,17.22
2019-02-17T11:42:19.051Z,16.74
2019-02-17T11:43:19.479Z,17.03
2019-02-17T11:44:20.158Z,18.76
2019-02-17T11:45:20.861Z,18.46
2019-02-17T11:46:21.328Z,18.08
2019-02-17T11:47:22.320Z,17.03
2019-02-17T11:48:23.306Z,18.08
2019-02-17T11:49:23.460Z,18.1
2019-02-17T11:50:25.193Z,17.71
2019-02-17T11:51:25.176Z,17.13
2019-02-17T11:52:26.179Z,16.83
2019-02-17T11:53:27.329Z,17.03
2019-02-17T11:54:27.905Z,17.61
2019-02-17T11:55:28.332Z,19.24
2019-02-17T11:56:29.036Z,17.51
2019-02-17T11:57:30.578Z,17.32
2019-02-17T11:58:30.558Z,17.7
2019-02-17T11:59:31.542Z,17.7
2019-02-17T12:00:31.768Z,17.8
2019-02-17T12:01:33.198Z,17.7
2019-02-17T12:02:33.907Z,17.9
2019-02-17T12:03:35.168Z,18.48
2019-02-17T12:04:35.605Z,17.81
2019-02-17T12:05:36.868Z,16.65
2019-02-17T12:06:37.321Z,16.54
2019-02-17T12:07:37.751Z,17.21
2019-02-17T12:08:38.730Z,18.07
2019-02-17T12:09:38.732Z,18.16
2019-02-17T12:10:40.165Z,19.01
2019-02-17T12:11:40.872Z,19.97
2019-02-17T12:12:41.925Z,19.97
2019-02-17T12:13:42.646Z,19.88
2019-02-17T12:14:43.625Z,19.11
2019-02-17T12:15:44.337Z,19.2
2019-02-17T12:16:45.042Z,19.67
2019-02-17T12:17:45.771Z,19.48
2019-02-17T12:18:45.970Z,19.48
2019-02-17T12:19:46.678Z,19.67
2019-02-17T12:20:47.109Z,19.28
2019-02-17T12:21:48.372Z,19.95
2019-02-17T12:22:49.356Z,19.67
2019-02-17T12:23:49.799Z,20.24
2019-02-17T12:24:50.206Z,20.14
2019-02-17T12:25:50.911Z,19.85
2019-02-17T12:26:52.340Z,19.38
2019-02-17T12:27:52.773Z,19.09
2019-02-17T12:28:53.923Z,19.28
2019-02-17T12:29:55.378Z,20.34
2019-02-17T12:30:56.365Z,20.14
2019-02-17T12:31:58.873Z,19.38
2019-02-17T12:32:59.855Z,19.18
2019-02-17T12:34:00.095Z,20.05
2019-02-17T12:35:01.218Z,20.05
2019-02-17T12:36:01.219Z,19.87
2019-02-17T12:37:02.205Z,19.1
2019-02-17T12:38:02.911Z,19.28
2019-02-17T12:39:03.615Z,19.2
2019-02-17T12:40:04.338Z,18.9
2019-02-17T12:41:05.764Z,19.67
2019-02-17T12:42:06.755Z,20.05
2019-02-17T12:43:07.258Z,20.34
2019-02-17T12:44:08.406Z,21.02
2019-02-17T12:45:09.532Z,21.59
2019-02-17T12:46:10.517Z,21.11
2019-02-17T12:47:11.503Z,21.41
2019-02-17T12:48:12.482Z,21.41
2019-02-17T12:49:13.469Z,22.08
2019-02-17T12:50:13.687Z,22.17
2019-02-17T12:51:14.117Z,22.17
2019-02-17T12:52:14.381Z,22.27
2019-02-17T12:53:16.085Z,21.78
2019-02-17T12:54:16.522Z,21.98
2019-02-17T12:55:17.090Z,21.98
2019-02-17T12:56:18.285Z,21.02
2019-02-17T12:57:18.989Z,21.11
2019-02-17T12:58:31.549Z,19.96
2019-02-17T12:59:32.743Z,20.15
2019-02-17T13:00:32.724Z,19.96
2019-02-17T13:01:33.716Z,19.96
2019-02-17T13:02:33.704Z,19
2019-02-17T13:03:34.967Z,16.89
2019-02-17T13:04:35.398Z,17.85